createdAt,value
2022-09-06T00:00:47.337Z,18.53
2022-09-06T00:01:56.532Z,18.80
2022-09-06T00:03:06.663Z,19.15
2022-09-06T00:04:16.120Z,19.22
2022-09-06T00:05:25.596Z,19.06
2022-09-06T00:06:31.627Z,19.41
2022-09-06T00:07:37.521Z,19.49
2022-09-06T00:08:44.420Z,19.29
2022-09-06T00:09:52.461Z,19.32
2022-09-06T00:11:03.522Z,19.37
2022-09-06T00:12:12.726Z,19.18
2022-09-06T00:13:23.024Z,19.29
2022-09-06T00:14:30.215Z,19.27
2022-09-06T00:15:38.779Z,19.30
2022-09-06T00:16:52.349Z,19.24
2022-09-06T00:18:04.283Z,18.96
2022-09-06T00:19:11.707Z,19.24
2022-09-06T00:20:18.042Z,19.20
2022-09-06T00:21:26.585Z,19.01
2022-09-06T00:22:34.723Z,19.10
2022-09-06T00:23:47.226Z,19.21
2022-09-06T00:24:54.958Z,18.98
2022-09-06T00:26:06.419Z,18.60
2022-09-06T00:27:14.899Z,18.71
2022-09-06T00:28:23.512Z,18.92
2022-09-06T00:29:33.815Z,19.10
2022-09-06T00:30:41.363Z,19.01
2022-09-06T00:31:47.716Z,19.01
2022-09-06T00:32:55.388Z,18.96
2022-09-06T00:34:04.434Z,19.07
2022-09-06T00:35:11.269Z,18.90
2022-09-06T00:36:18.015Z,19.09
2022-09-06T00:37:24.781Z,19.42
2022-09-06T00:38:30.844Z,19.30
2022-09-06T00:39:41.286Z,19.37
2022-09-06T00:40:49.844Z,19.38
2022-09-06T00:41:56.741Z,19.53
2022-09-06T00:43:03.028Z,19.59
2022-09-06T00:44:08.793Z,19.60
2022-09-06T00:45:14.776Z,19.56
2022-09-06T00:46:25.573Z,19.80
2022-09-06T00:47:32.229Z,19.95
2022-09-06T00:48:39.275Z,19.74
2022-09-06T00:49:51.219Z,19.84
2022-09-06T00:51:00.253Z,20.08
2022-09-06T00:52:07.656Z,20.25
2022-09-06T00:53:13.702Z,20.32
2022-09-06T00:54:19.618Z,20.60
2022-09-06T00:55:27.276Z,20.40
2022-09-06T00:56:34.678Z,20.07
2022-09-06T00:57:41.239Z,20.48
2022-09-06T00:58:48.892Z,20.08
2022-09-06T00:59:58.024Z,20.39
2022-09-06T01:01:05.162Z,20.48
2022-09-06T01:02:12.295Z,20.56
2022-09-06T01:03:19.788Z,20.58
2022-09-06T01:04:26.994Z,20.66
2022-09-06T01:06:02.682Z,20.82
2022-09-06T01:07:31.380Z,21.11
2022-09-06T01:08:59.291Z,21.24
2022-09-06T01:10:14.577Z,21.28
2022-09-06T01:11:21.180Z,21.67
2022-09-06T01:13:00.548Z,21.75
2022-09-06T01:14:16.036Z,21.92
2022-09-06T01:15:58.417Z,22.58
2022-09-06T01:17:13.020Z,22.87
2022-09-06T01:18:37.316Z,22.66
2022-09-06T01:19:51.000Z,22.94
2022-09-06T01:21:21.870Z,23.33
2022-09-06T01:22:36.959Z,23.36
2022-09-06T01:24:13.803Z,23.51
2022-09-06T01:25:23.613Z,23.62
2022-09-06T01:26:42.020Z,23.86
2022-09-06T01:28:19.654Z,23.96
2022-09-06T01:29:46.735Z,24.06
2022-09-06T01:31:19.844Z,24.28
2022-09-06T01:32:33.123Z,24.56
2022-09-06T01:34:09.706Z,25.03
2022-09-06T01:35:36.971Z,25.41
2022-09-06T01:37:09.421Z,25.63
2022-09-06T01:38:17.517Z,26.04
2022-09-06T01:39:30.623Z,26.35
2022-09-06T01:40:37.270Z,26.38
2022-09-06T01:41:43.472Z,26.51
2022-09-06T01:42:49.607Z,26.69
2022-09-06T01:43:55.948Z,26.73
2022-09-06T01:45:04.221Z,27.08
2022-09-06T01:46:12.790Z,27.12
2022-09-06T01:47:37.198Z,27.05
2022-09-06T01:48:56.305Z,27.15
2022-09-06T01:50:29.184Z,27.35
2022-09-06T01:51:56.408Z,27.66
2022-09-06T01:53:09.820Z,27.86
2022-09-06T01:54:23.778Z,28.12
2022-09-06T01:55:54.240Z,28.42
2022-09-06T01:57:37.245Z,28.49
2022-09-06T01:59:03.159Z,28.92
2022-09-06T02:00:20.497Z,28.99
2022-09-06T02:01:32.394Z,29.29
2022-09-06T02:03:02.033Z,29.51
2022-09-06T02:04:18.078Z,29.72
2022-09-06T02:05:54.777Z,29.83
2022-09-06T02:07:11.920Z,29.96
2022-09-06T02:08:30.277Z,30.06
2022-09-06T02:09:39.509Z,30.21
2022-09-06T02:11:13.382Z,30.35
2022-09-06T02:12:19.665Z,30.48
2022-09-06T02:13:25.969Z,30.68
2022-09-06T02:14:42.346Z,30.62
2022-09-06T02:15:53.919Z,30.90
2022-09-06T02:16:59.999Z,31.08
2022-09-06T02:18:14.726Z,31.03
2022-09-06T02:19:25.807Z,31.01
2022-09-06T02:20:32.203Z,31.20
2022-09-06T02:21:39.486Z,31.39
2022-09-06T02:22:46.747Z,31.62
2022-09-06T02:23:53.595Z,31.46
2022-09-06T02:25:00.620Z,31.69
2022-09-06T02:26:23.276Z,31.79
2022-09-06T02:27:31.130Z,31.83
2022-09-06T02:28:37.173Z,31.95
2022-09-06T02:29:43.553Z,31.96
2022-09-06T02:30:51.706Z,32.05
2022-09-06T02:32:11.896Z,32.04
2022-09-06T02:33:22.222Z,32.21
2022-09-06T02:34:28.246Z,32.55
2022-09-06T02:35:34.727Z,32.64
2022-09-06T02:36:40.773Z,32.61
2022-09-06T02:37:46.990Z,32.57
2022-09-06T02:38:53.017Z,32.66
2022-09-06T02:39:59.411Z,33.05
2022-09-06T02:41:05.679Z,33.36
2022-09-06T02:42:11.948Z,33.46
2022-09-06T02:43:17.630Z,33.74
2022-09-06T02:44:23.916Z,33.92
2022-09-06T02:45:29.904Z,34.09
2022-09-06T02:46:36.291Z,33.99
2022-09-06T02:47:42.503Z,34.02
2022-09-06T02:48:50.944Z,34.07
2022-09-06T02:49:59.254Z,34.40
2022-09-06T02:51:08.504Z,34.49
2022-09-06T02:52:14.462Z,34.55
2022-09-06T02:53:21.480Z,34.46
2022-09-06T02:54:29.380Z,34.58
2022-09-06T02:55:36.658Z,34.45
2022-09-06T02:56:44.135Z,34.50
2022-09-06T02:57:51.143Z,34.57
2022-09-06T02:58:57.329Z,34.66
2022-09-06T03:00:03.589Z,34.52
2022-09-06T03:01:09.793Z,34.73
2022-09-06T03:02:16.028Z,34.95
2022-09-06T03:03:23.374Z,35.01
2022-09-06T03:04:29.328Z,35.11
2022-09-06T03:05:35.507Z,35.26
2022-09-06T03:06:43.978Z,35.17
2022-09-06T03:07:51.149Z,35.42
2022-09-06T03:09:01.314Z,35.30
2022-09-06T03:10:09.230Z,35.24
2022-09-06T03:11:15.554Z,35.37
2022-09-06T03:12:21.419Z,35.57
2022-09-06T03:13:27.105Z,35.71
2022-09-06T03:14:35.483Z,35.70
2022-09-06T03:15:41.416Z,35.64
2022-09-06T03:16:47.433Z,35.47
2022-09-06T03:17:53.475Z,35.54
2022-09-06T03:18:59.581Z,35.76
2022-09-06T03:20:05.887Z,35.84
2022-09-06T03:21:12.086Z,35.98
2022-09-06T03:22:17.738Z,35.89
2022-09-06T03:23:25.322Z,35.82
2022-09-06T03:24:31.198Z,35.97
2022-09-06T03:25:37.327Z,35.76
2022-09-06T03:26:43.369Z,36.02
2022-09-06T03:27:49.617Z,35.99
2022-09-06T03:28:55.392Z,35.93
2022-09-06T03:30:01.598Z,35.98
2022-09-06T03:31:08.231Z,35.94
2022-09-06T03:32:14.371Z,35.89
2022-09-06T03:33:20.528Z,35.90
2022-09-06T03:34:26.859Z,36.02
2022-09-06T03:35:32.726Z,36.07
2022-09-06T03:36:38.941Z,36.61
2022-09-06T03:37:45.191Z,36.55
2022-09-06T03:38:52.000Z,36.89
2022-09-06T03:39:58.117Z,36.98
2022-09-06T03:41:04.083Z,36.88
2022-09-06T03:42:10.080Z,36.85
2022-09-06T03:43:15.783Z,36.92
2022-09-06T03:44:21.773Z,36.97
2022-09-06T03:45:28.209Z,37.11
2022-09-06T03:46:33.886Z,36.95
2022-09-06T03:47:40.063Z,37.03
2022-09-06T03:48:45.857Z,37.25
2022-09-06T03:49:52.427Z,37.23
2022-09-06T03:50:59.243Z,37.24
2022-09-06T03:52:05.124Z,37.02
2022-09-06T03:53:12.057Z,37.21
2022-09-06T03:54:18.076Z,37.28
2022-09-06T03:55:24.085Z,37.14
2022-09-06T03:56:30.036Z,37.25
2022-09-06T03:57:35.988Z,37.49
2022-09-06T03:58:42.069Z,37.35
2022-09-06T03:59:47.845Z,37.45
2022-09-06T04:01:01.938Z,37.34
2022-09-06T04:02:08.731Z,37.50
2022-09-06T04:03:15.429Z,37.71
2022-09-06T04:04:21.286Z,37.71
2022-09-06T04:05:27.507Z,37.92
2022-09-06T04:06:33.384Z,38.03
2022-09-06T04:07:39.889Z,37.90
2022-09-06T04:08:45.630Z,37.85
2022-09-06T04:09:52.273Z,37.93
2022-09-06T04:10:58.388Z,38.07
2022-09-06T04:12:04.221Z,38.14
2022-09-06T04:13:10.333Z,38.21
2022-09-06T04:14:16.288Z,38.12
2022-09-06T04:15:22.453Z,38.31
2022-09-06T04:16:28.729Z,38.42
2022-09-06T04:17:36.432Z,38.31
2022-09-06T04:18:44.136Z,38.37
2022-09-06T04:19:50.628Z,38.46
2022-09-06T04:20:58.103Z,38.67
2022-09-06T04:22:05.158Z,38.80
2022-09-06T04:23:11.549Z,38.68
2022-09-06T04:24:17.696Z,38.39
2022-09-06T04:25:25.231Z,38.64
2022-09-06T04:26:32.663Z,38.80
2022-09-06T04:27:39.841Z,38.84
2022-09-06T04:28:47.150Z,38.80
2022-09-06T04:29:54.069Z,38.96
2022-09-06T04:31:04.900Z,39.28
2022-09-06T04:32:13.105Z,39.48
2022-09-06T04:33:19.552Z,39.55
2022-09-06T04:34:25.850Z,39.38
2022-09-06T04:35:33.343Z,39.67
2022-09-06T04:36:40.144Z,39.64
2022-09-06T04:37:47.230Z,39.71
2022-09-06T04:38:55.705Z,39.68
2022-09-06T04:40:02.491Z,39.85
2022-09-06T04:41:09.164Z,39.60
2022-09-06T04:42:15.352Z,39.94
2022-09-06T04:43:22.635Z,40.27
2022-09-06T04:44:30.006Z,40.19
2022-09-06T04:45:40.013Z,40.03
2022-09-06T04:46:46.610Z,40.16
2022-09-06T04:47:53.388Z,40.16
2022-09-06T04:49:02.791Z,40.21
2022-09-06T04:50:11.368Z,40.08
2022-09-06T04:51:17.259Z,40.31
2022-09-06T04:52:25.071Z,40.67
2022-09-06T04:53:35.643Z,40.78
2022-09-06T04:54:44.333Z,40.76
2022-09-06T04:55:51.718Z,40.67
2022-09-06T04:56:59.270Z,40.66
2022-09-06T04:58:07.310Z,40.75
2022-09-06T04:59:13.450Z,40.96
2022-09-06T05:00:21.020Z,40.94
2022-09-06T05:01:28.160Z,41.31
2022-09-06T05:02:34.808Z,41.63
2022-09-06T05:03:42.720Z,41.59
2022-09-06T05:04:49.640Z,41.84
2022-09-06T05:06:06.189Z,41.95
2022-09-06T05:07:12.280Z,41.74
2022-09-06T05:08:18.538Z,41.94
2022-09-06T05:09:26.023Z,41.83
2022-09-06T05:10:32.993Z,41.58
2022-09-06T05:11:39.935Z,41.73
2022-09-06T05:12:53.371Z,41.98
2022-09-06T05:14:00.266Z,42.08
2022-09-06T05:15:06.595Z,42.45
2022-09-06T05:16:12.924Z,42.48
2022-09-06T05:17:19.794Z,42.46
2022-09-06T05:18:26.334Z,42.53
2022-09-06T05:19:33.779Z,42.54
2022-09-06T05:20:41.701Z,42.84
2022-09-06T05:21:49.230Z,42.88
2022-09-06T05:22:57.017Z,42.86
2022-09-06T05:24:04.159Z,42.79
2022-09-06T05:25:10.607Z,42.70
2022-09-06T05:26:17.609Z,42.39
2022-09-06T05:27:25.319Z,42.59
2022-09-06T05:28:32.419Z,42.52
2022-09-06T05:29:38.958Z,42.54
2022-09-06T05:30:46.704Z,42.52
2022-09-06T05:31:53.759Z,42.69
2022-09-06T05:33:00.929Z,42.78
2022-09-06T05:34:07.621Z,42.65
2022-09-06T05:35:13.930Z,42.95
2022-09-06T05:36:20.607Z,42.92
2022-09-06T05:37:28.720Z,43.18
2022-09-06T05:38:35.501Z,43.25
2022-09-06T05:39:43.481Z,43.13
2022-09-06T05:40:53.330Z,43.05
2022-09-06T05:42:01.543Z,43.14
2022-09-06T05:43:07.765Z,43.12
2022-09-06T05:44:13.893Z,43.31
2022-09-06T05:45:20.505Z,43.13
2022-09-06T05:46:27.057Z,42.88
2022-09-06T05:47:35.871Z,43.03
2022-09-06T05:48:42.120Z,43.11
2022-09-06T05:50:01.638Z,43.32
2022-09-06T05:51:24.337Z,43.23
2022-09-06T05:52:39.829Z,43.36
2022-09-06T05:53:47.345Z,43.44
2022-09-06T05:54:53.863Z,43.89
2022-09-06T05:56:00.759Z,43.87
2022-09-06T05:57:07.733Z,43.94
2022-09-06T05:58:14.045Z,43.72
2022-09-06T05:59:20.136Z,43.44
2022-09-06T06:00:26.194Z,43.54
2022-09-06T06:01:31.962Z,43.61
2022-09-06T06:02:37.972Z,43.54
2022-09-06T06:03:44.244Z,43.41
2022-09-06T06:04:50.189Z,43.46
2022-09-06T06:05:56.154Z,43.38
2022-09-06T06:07:02.301Z,43.68
2022-09-06T06:08:08.781Z,43.69
2022-09-06T06:09:14.930Z,43.68
2022-09-06T06:10:20.872Z,43.71
2022-09-06T06:11:27.036Z,43.63
2022-09-06T06:12:32.886Z,43.76
2022-09-06T06:13:40.304Z,43.64
2022-09-06T06:14:46.112Z,43.57
2022-09-06T06:15:52.192Z,43.52
2022-09-06T06:16:58.462Z,43.70
2022-09-06T06:18:04.512Z,43.94
2022-09-06T06:19:10.800Z,43.76
2022-09-06T06:20:16.596Z,43.65
2022-09-06T06:21:23.798Z,43.73
2022-09-06T06:22:29.575Z,43.95
2022-09-06T06:23:35.569Z,44.02
2022-09-06T06:24:42.059Z,44.09
2022-09-06T06:25:48.154Z,43.93
2022-09-06T06:26:54.715Z,43.93
2022-09-06T06:28:00.944Z,43.78
2022-09-06T06:29:10.302Z,43.86
2022-09-06T06:30:18.492Z,43.84
2022-09-06T06:31:24.575Z,43.89
2022-09-06T06:32:30.719Z,43.92
2022-09-06T06:33:39.714Z,43.94
2022-09-06T06:34:45.523Z,44.01
2022-09-06T06:36:07.753Z,43.93
2022-09-06T06:37:14.120Z,44.21
2022-09-06T06:38:20.613Z,44.16
2022-09-06T06:39:27.895Z,44.17
2022-09-06T06:40:34.543Z,44.16
2022-09-06T06:41:41.772Z,44.34
2022-09-06T06:43:05.055Z,44.29
2022-09-06T06:44:11.290Z,44.57
2022-09-06T06:45:17.204Z,44.59
2022-09-06T06:46:24.413Z,45.06
2022-09-06T06:47:30.569Z,45.07
2022-09-06T06:48:36.796Z,44.99
2022-09-06T06:49:43.238Z,45.04
2022-09-06T06:50:48.962Z,44.98
2022-09-06T06:51:54.923Z,44.96
2022-09-06T06:53:00.988Z,45.25
2022-09-06T06:54:07.053Z,45.51
2022-09-06T06:55:13.197Z,45.87
2022-09-06T06:56:22.848Z,45.63
2022-09-06T06:57:28.558Z,45.88
2022-09-06T06:58:35.822Z,46.08
2022-09-06T06:59:42.338Z,45.88
2022-09-06T07:00:48.445Z,46.23
2022-09-06T07:01:54.582Z,46.27
2022-09-06T07:03:01.174Z,45.94
2022-09-06T07:04:08.093Z,45.78
2022-09-06T07:08:24.515Z,46.10
2022-09-06T07:10:58.593Z,46.07
2022-09-06T07:12:04.434Z,46.35
2022-09-06T07:13:10.518Z,46.70
2022-09-06T07:14:19.399Z,47.11
2022-09-06T07:15:25.881Z,47.26
2022-09-06T07:16:32.206Z,47.23
2022-09-06T07:17:38.575Z,47.20
2022-09-06T07:18:46.157Z,47.13
2022-09-06T07:22:46.577Z,47.80
2022-09-06T07:24:09.017Z,47.77
2022-09-06T07:25:21.156Z,47.82
2022-09-06T07:26:30.310Z,48.03
2022-09-06T07:27:51.553Z,48.01
2022-09-06T07:29:03.156Z,47.95
2022-09-06T07:30:09.866Z,47.97
2022-09-06T07:32:43.121Z,48.54
2022-09-06T07:33:52.516Z,49.16
2022-09-06T07:35:02.089Z,49.56
2022-09-06T07:36:08.461Z,49.54
2022-09-06T07:37:14.560Z,49.66
2022-09-06T07:38:20.972Z,49.88
2022-09-06T07:39:27.634Z,49.86
2022-09-06T07:40:33.890Z,50.04
2022-09-06T07:41:40.157Z,50.17
2022-09-06T07:42:46.029Z,50.55
2022-09-06T07:43:55.374Z,51.07
2022-09-06T07:45:01.176Z,51.51
2022-09-06T07:46:11.454Z,51.76
2022-09-06T07:48:46.109Z,51.86
2022-09-06T07:51:22.463Z,51.97
2022-09-06T07:54:13.314Z,52.01
2022-09-06T07:55:26.731Z,52.74
2022-09-06T07:56:32.639Z,53.07
2022-09-06T07:57:38.701Z,53.31
2022-09-06T07:58:44.663Z,53.23
2022-09-06T07:59:50.786Z,53.28
2022-09-06T08:01:34.911Z,53.21
2022-09-06T08:02:41.616Z,52.90
2022-09-06T08:03:47.725Z,53.21
2022-09-06T08:04:54.021Z,53.32
2022-09-06T08:10:02.792Z,54.19
2022-09-06T08:11:08.779Z,54.02
2022-09-06T08:12:14.232Z,54.26
2022-09-06T08:13:20.028Z,54.60
2022-09-06T08:14:25.855Z,54.65
2022-09-06T08:15:33.531Z,54.47
2022-09-06T08:16:39.988Z,54.21
2022-09-06T08:17:48.958Z,54.13
2022-09-06T08:18:55.706Z,53.90
2022-09-06T08:20:01.894Z,53.75
2022-09-06T08:21:14.647Z,53.82
2022-09-06T08:22:21.353Z,54.01
2022-09-06T08:23:27.573Z,54.03
2022-09-06T08:24:36.302Z,53.85
2022-09-06T08:25:42.180Z,53.76
2022-09-06T08:26:48.042Z,53.91
2022-09-06T08:27:54.012Z,53.74
2022-09-06T08:29:04.161Z,53.59
2022-09-06T08:30:10.622Z,53.97
2022-09-06T08:31:17.275Z,54.64
2022-09-06T08:32:23.201Z,54.81
2022-09-06T08:33:29.416Z,54.98
2022-09-06T08:34:35.609Z,55.00
2022-09-06T08:35:41.445Z,54.71
2022-09-06T08:36:47.332Z,54.91
2022-09-06T08:37:54.150Z,55.35
2022-09-06T08:39:05.045Z,55.05
2022-09-06T08:40:11.165Z,55.03
2022-09-06T08:41:23.640Z,55.03
2022-09-06T08:42:30.103Z,55.10
2022-09-06T08:43:35.973Z,55.07
2022-09-06T08:44:56.936Z,55.07
2022-09-06T08:46:04.824Z,54.98
2022-09-06T08:47:14.132Z,54.89
2022-09-06T08:48:20.186Z,54.78
2022-09-06T08:49:27.043Z,54.85
2022-09-06T08:50:32.981Z,55.14
2022-09-06T08:52:00.823Z,54.74
2022-09-06T08:53:17.898Z,55.04
2022-09-06T08:55:03.229Z,54.84
2022-09-06T08:56:29.945Z,54.43
2022-09-06T08:57:57.197Z,53.98
2022-09-06T08:59:08.513Z,53.82
2022-09-06T09:00:14.803Z,53.75
2022-09-06T09:01:24.227Z,53.65
2022-09-06T09:02:30.167Z,53.46
2022-09-06T09:03:40.642Z,53.50
2022-09-06T09:05:01.513Z,53.66
2022-09-06T09:06:09.920Z,53.74
2022-09-06T09:07:24.732Z,53.73
2022-09-06T09:08:57.333Z,53.57
2022-09-06T09:10:05.521Z,53.46
2022-09-06T09:11:16.374Z,53.42
2022-09-06T09:12:23.793Z,53.45
2022-09-06T09:13:40.589Z,53.53
2022-09-06T09:14:48.897Z,53.49
2022-09-06T09:15:55.051Z,53.62
2022-09-06T09:17:05.591Z,53.78
2022-09-06T09:18:11.314Z,53.95
2022-09-06T09:19:17.125Z,53.84
2022-09-06T09:20:23.582Z,54.02
2022-09-06T09:21:31.038Z,54.12
2022-09-06T09:22:37.135Z,54.71
2022-09-06T09:23:43.387Z,55.12
2022-09-06T09:24:49.765Z,55.10
2022-09-06T09:25:56.525Z,55.45
2022-09-06T09:27:11.574Z,55.84
2022-09-06T09:28:18.624Z,56.02
2022-09-06T09:29:28.615Z,56.28
2022-09-06T09:30:50.882Z,56.37
2022-09-06T09:31:57.316Z,56.47
2022-09-06T09:33:03.492Z,56.37
2022-09-06T09:34:13.534Z,56.30
2022-09-06T09:35:34.789Z,56.47
2022-09-06T09:36:40.653Z,56.55
2022-09-06T09:37:48.480Z,56.65
2022-09-06T09:38:59.226Z,56.67
2022-09-06T09:40:06.558Z,56.42
2022-09-06T09:41:25.638Z,56.85
2022-09-06T09:42:38.698Z,57.15
2022-09-06T09:43:56.029Z,57.03
2022-09-06T09:45:03.547Z,57.22
2022-09-06T09:46:18.848Z,57.39
2022-09-06T09:47:34.445Z,56.74
2022-09-06T09:48:41.705Z,56.92
2022-09-06T09:49:47.506Z,57.22
2022-09-06T09:50:53.149Z,57.45
2022-09-06T09:52:10.960Z,57.59
2022-09-06T09:53:18.911Z,58.07
2022-09-06T09:54:36.882Z,58.17
2022-09-06T09:55:43.917Z,58.05
2022-09-06T09:56:56.545Z,57.95
2022-09-06T09:58:03.480Z,58.14
2022-09-06T09:59:30.447Z,58.17
2022-09-06T10:00:40.540Z,58.35
2022-09-06T10:01:46.530Z,58.39
2022-09-06T10:02:52.203Z,58.62
2022-09-06T10:05:39.403Z,59.04
2022-09-06T10:08:12.505Z,58.73
2022-09-06T10:09:25.335Z,59.06
2022-09-06T10:10:34.203Z,58.75
2022-09-06T10:11:41.932Z,58.76
2022-09-06T10:12:47.658Z,58.93
2022-09-06T10:13:53.666Z,58.86
2022-09-06T10:15:02.291Z,59.03
2022-09-06T10:16:12.598Z,59.10
2022-09-06T10:17:31.778Z,59.26
2022-09-06T10:18:38.563Z,59.35
2022-09-06T10:19:46.390Z,59.37
2022-09-06T10:20:57.201Z,59.29
2022-09-06T10:22:11.825Z,59.14
2022-09-06T10:25:31.134Z,59.80
2022-09-06T10:26:56.990Z,60.11
2022-09-06T10:28:18.030Z,59.89
2022-09-06T10:29:57.424Z,60.05
2022-09-06T10:31:28.371Z,60.11
2022-09-06T10:32:44.493Z,60.20
2022-09-06T10:33:51.563Z,60.26
2022-09-06T10:35:07.379Z,60.26
2022-09-06T10:36:13.226Z,60.21
2022-09-06T10:37:38.803Z,60.33
2022-09-06T10:39:14.436Z,60.69
2022-09-06T10:40:42.886Z,60.59
2022-09-06T10:42:13.950Z,60.38
2022-09-06T10:43:20.436Z,60.33
2022-09-06T10:44:36.948Z,60.36
2022-09-06T10:45:48.202Z,60.28
2022-09-06T10:47:03.062Z,60.14
2022-09-06T10:48:40.490Z,60.01
2022-09-06T10:49:49.752Z,59.82
2022-09-06T10:50:57.250Z,60.06
2022-09-06T10:52:04.441Z,60.16
2022-09-06T10:53:18.646Z,60.47
2022-09-06T10:54:26.340Z,60.48
2022-09-06T10:55:33.631Z,60.91
2022-09-06T10:56:48.340Z,61.26
2022-09-06T11:00:47.571Z,61.60
2022-09-06T11:02:11.779Z,61.48
2022-09-06T11:06:22.497Z,61.29
2022-09-06T11:07:38.196Z,61.53
2022-09-06T11:08:47.858Z,61.83
2022-09-06T11:09:57.610Z,62.01
2022-09-06T11:11:08.310Z,61.84
2022-09-06T11:12:14.371Z,61.93
2022-09-06T11:13:21.460Z,62.08
2022-09-06T11:14:27.893Z,62.09
2022-09-06T11:15:44.306Z,62.06
2022-09-06T11:16:58.629Z,62.72
2022-09-06T11:18:34.889Z,63.54
2022-09-06T11:19:47.825Z,64.14
2022-09-06T11:21:15.262Z,64.44
2022-09-06T11:22:37.647Z,64.28
2022-09-06T11:24:04.926Z,64.09
2022-09-06T11:25:37.759Z,63.93
2022-09-06T11:27:04.484Z,64.05
2022-09-06T11:28:14.644Z,63.94
2022-09-06T11:29:27.732Z,63.94
2022-09-06T11:30:35.894Z,64.00
2022-09-06T11:32:49.947Z,63.75
2022-09-06T11:34:05.308Z,63.76
2022-09-06T11:35:23.231Z,63.69
2022-09-06T11:36:52.143Z,63.62
2022-09-06T11:38:06.652Z,63.72
2022-09-06T11:39:12.644Z,63.73
2022-09-06T11:41:43.216Z,63.64
2022-09-06T11:42:53.218Z,63.45
2022-09-06T11:43:59.794Z,63.63
2022-09-06T11:45:22.232Z,63.68
2022-09-06T11:46:37.265Z,63.60
2022-09-06T11:47:45.833Z,63.63
2022-09-06T11:49:33.106Z,63.79
2022-09-06T11:51:02.515Z,63.75
2022-09-06T11:52:47.231Z,63.80
2022-09-06T11:54:17.108Z,64.10
2022-09-06T11:55:47.212Z,64.20
2022-09-06T11:57:02.597Z,64.22
2022-09-06T11:58:32.693Z,64.32
2022-09-06T11:59:45.256Z,64.53
2022-09-06T12:01:17.041Z,64.68
2022-09-06T12:02:41.961Z,64.80
2022-09-06T12:04:07.469Z,64.95
2022-09-06T12:05:26.622Z,65.32
2022-09-06T12:06:42.181Z,65.38
2022-09-06T12:08:12.341Z,65.47
2022-09-06T12:09:37.860Z,65.90
2022-09-06T12:10:48.302Z,66.10
2022-09-06T12:11:54.193Z,65.99
2022-09-06T12:13:00.119Z,65.93
2022-09-06T12:14:33.522Z,65.88
2022-09-06T12:15:54.402Z,66.21
2022-09-06T12:17:05.787Z,66.09
2022-09-06T12:18:11.916Z,66.02
2022-09-06T12:19:52.380Z,66.22
2022-09-06T12:20:58.269Z,66.41
2022-09-06T12:22:04.674Z,66.44
2022-09-06T12:23:10.339Z,66.54
2022-09-06T12:24:45.272Z,66.77
2022-09-06T12:25:53.395Z,67.06
2022-09-06T12:27:34.916Z,66.90
2022-09-06T12:28:53.374Z,66.81
2022-09-06T12:30:06.594Z,67.12
2022-09-06T12:31:41.751Z,67.30
2022-09-06T12:32:52.605Z,67.06
2022-09-06T12:33:58.948Z,67.09
2022-09-06T12:36:34.478Z,67.78
2022-09-06T12:37:52.525Z,68.15
2022-09-06T12:39:10.353Z,68.43
2022-09-06T12:40:16.985Z,68.56
2022-09-06T12:41:23.494Z,68.61
2022-09-06T12:42:30.031Z,68.44
2022-09-06T12:43:37.471Z,68.68
2022-09-06T12:44:49.791Z,68.56
2022-09-06T12:45:56.752Z,68.87
2022-09-06T12:47:16.713Z,69.01
2022-09-06T12:48:30.674Z,69.23
2022-09-06T12:49:37.695Z,69.24
2022-09-06T12:50:45.362Z,69.30
2022-09-06T12:51:52.357Z,69.32
2022-09-06T12:53:04.038Z,69.28
2022-09-06T12:54:24.311Z,69.13
2022-09-06T12:55:38.574Z,69.15
2022-09-06T12:56:46.298Z,69.38
2022-09-06T12:57:58.646Z,69.28
2022-09-06T12:59:25.655Z,69.10
2022-09-06T13:00:41.936Z,69.05
2022-09-06T13:02:19.980Z,69.07
2022-09-06T13:03:34.641Z,69.14
2022-09-06T13:04:54.815Z,68.98
2022-09-06T13:06:02.089Z,69.14
2022-09-06T13:07:10.381Z,69.19
2022-09-06T13:08:25.271Z,69.08
2022-09-06T13:09:33.123Z,69.01
2022-09-06T13:10:40.107Z,69.01
2022-09-06T13:11:52.619Z,68.89
2022-09-06T13:13:00.110Z,68.74
2022-09-06T13:14:14.589Z,68.54
2022-09-06T13:15:26.418Z,68.17
2022-09-06T13:16:37.742Z,67.97
2022-09-06T13:17:45.432Z,67.71
2022-09-06T13:18:52.646Z,67.61
2022-09-06T13:20:03.676Z,67.48
2022-09-06T13:21:16.455Z,67.39
2022-09-06T13:22:42.236Z,67.49
2022-09-06T13:23:51.694Z,67.98
2022-09-06T13:24:58.263Z,68.40
2022-09-06T13:26:05.100Z,68.50
2022-09-06T13:27:29.909Z,68.55
2022-09-06T13:28:37.493Z,68.54
2022-09-06T13:30:00.521Z,68.64
2022-09-06T13:31:19.198Z,68.36
2022-09-06T13:32:25.564Z,68.46
2022-09-06T13:33:32.798Z,68.49
2022-09-06T13:34:39.459Z,68.34
2022-09-06T13:35:46.077Z,68.11
2022-09-06T13:36:55.029Z,67.92
2022-09-06T13:38:32.026Z,67.92
2022-09-06T13:39:42.648Z,68.02
2022-09-06T13:41:11.000Z,68.15
2022-09-06T13:42:33.729Z,68.24
2022-09-06T13:43:46.549Z,68.16
2022-09-06T13:44:53.623Z,68.20
2022-09-06T13:46:06.048Z,68.25
2022-09-06T13:47:12.382Z,68.44
2022-09-06T13:48:29.022Z,68.46
2022-09-06T13:49:37.844Z,68.45
2022-09-06T13:50:44.567Z,68.17
2022-09-06T13:51:53.439Z,67.85
2022-09-06T13:53:00.424Z,67.72
2022-09-06T13:54:15.087Z,67.62
2022-09-06T13:55:21.126Z,67.70
2022-09-06T13:56:28.249Z,67.61
2022-09-06T13:57:35.465Z,67.41
2022-09-06T13:58:42.367Z,66.99
2022-09-06T13:59:49.607Z,66.34
2022-09-06T14:00:56.418Z,65.57
2022-09-06T14:02:10.416Z,64.95
2022-09-06T14:03:23.415Z,64.34
2022-09-06T14:04:30.026Z,63.79
2022-09-06T14:05:39.634Z,63.32
2022-09-06T14:06:47.977Z,62.97
2022-09-06T14:07:55.455Z,62.90
2022-09-06T14:09:07.468Z,63.17
2022-09-06T14:10:15.584Z,63.49
2022-09-06T14:11:21.735Z,63.57
2022-09-06T14:12:28.608Z,63.58
2022-09-06T14:13:35.524Z,63.67
2022-09-06T14:14:42.324Z,63.01
2022-09-06T14:15:49.539Z,62.42
2022-09-06T14:16:56.535Z,61.01
2022-09-06T14:18:03.358Z,59.00
2022-09-06T14:19:14.571Z,58.11
2022-09-06T14:20:22.317Z,57.56
2022-09-06T14:21:28.996Z,57.21
2022-09-06T14:22:40.002Z,56.47
2022-09-06T14:23:53.282Z,55.82
2022-09-06T14:25:00.042Z,55.30
2022-09-06T14:26:08.090Z,54.37
2022-09-06T14:27:14.807Z,53.61
2022-09-06T14:28:22.403Z,52.73
2022-09-06T14:29:29.037Z,52.16
2022-09-06T14:30:35.859Z,51.17
2022-09-06T14:31:44.157Z,50.73
2022-09-06T14:32:51.634Z,49.91
2022-09-06T14:33:59.493Z,49.77
2022-09-06T14:35:07.606Z,49.66
2022-09-06T14:36:18.708Z,48.79
2022-09-06T14:37:24.874Z,47.95
2022-09-06T14:38:31.501Z,46.99
2022-09-06T14:39:38.494Z,46.45
2022-09-06T14:40:45.600Z,45.83
2022-09-06T14:41:53.669Z,45.61
2022-09-06T14:43:00.066Z,45.69
2022-09-06T14:44:06.488Z,45.23
2022-09-06T14:45:12.687Z,44.53
2022-09-06T14:46:19.339Z,43.91
2022-09-06T14:47:25.350Z,43.66
2022-09-06T14:48:32.110Z,43.96
2022-09-06T14:49:38.060Z,43.82
2022-09-06T14:50:44.111Z,43.18
2022-09-06T14:51:50.074Z,42.63
2022-09-06T14:52:55.853Z,42.32
2022-09-06T14:54:07.563Z,41.96
2022-09-06T14:55:13.302Z,41.73
2022-09-06T14:56:19.550Z,41.84
2022-09-06T14:57:25.667Z,41.66
2022-09-06T14:58:34.592Z,41.75
2022-09-06T14:59:40.579Z,41.22
2022-09-06T15:00:47.158Z,41.32
2022-09-06T15:01:54.099Z,41.37
2022-09-06T15:03:00.488Z,41.50
2022-09-06T15:04:08.244Z,41.53
2022-09-06T15:05:14.588Z,41.52
2022-09-06T15:06:26.580Z,41.29
2022-09-06T15:07:34.317Z,41.12
2022-09-06T15:08:41.282Z,40.76
2022-09-06T15:09:48.460Z,40.66
2022-09-06T15:10:56.695Z,40.85
2022-09-06T15:12:04.023Z,41.11
2022-09-06T15:13:11.621Z,40.85
2022-09-06T15:14:23.043Z,41.05
2022-09-06T15:15:30.172Z,41.21
2022-09-06T15:16:37.495Z,40.97
2022-09-06T15:17:43.785Z,40.65
2022-09-06T15:18:51.474Z,40.37
2022-09-06T15:20:00.572Z,39.91
2022-09-06T15:21:15.020Z,39.59
2022-09-06T15:22:22.429Z,39.38
2022-09-06T15:23:29.067Z,39.04
2022-09-06T15:24:41.722Z,39.18
2022-09-06T15:25:53.006Z,38.89
2022-09-06T15:27:00.472Z,38.65
2022-09-06T15:28:07.619Z,38.46
2022-09-06T15:29:13.546Z,37.44
2022-09-06T15:30:20.199Z,36.81
2022-09-06T15:31:26.028Z,37.00
2022-09-06T15:32:32.434Z,36.81
2022-09-06T15:33:39.023Z,36.66
2022-09-06T15:34:48.628Z,36.42
2022-09-06T15:35:58.145Z,36.48
2022-09-06T15:37:04.840Z,36.49
2022-09-06T15:38:11.085Z,36.29
2022-09-06T15:39:17.665Z,36.20
2022-09-06T15:40:25.032Z,35.79
2022-09-06T15:41:32.972Z,35.45
2022-09-06T15:42:40.198Z,35.33